createdAt,value
2023-03-15T00:01:08.007Z,2.60
2023-03-15T00:03:39.774Z,2.53
2023-03-15T00:06:07.284Z,1.98
2023-03-15T00:08:34.169Z,2.22
2023-03-15T00:11:01.801Z,2.90
2023-03-15T00:13:28.429Z,1.90
2023-03-15T00:15:59.253Z,3.17
2023-03-15T00:18:27.949Z,3.20
2023-03-15T00:20:55.464Z,2.70
2023-03-15T00:23:22.840Z,2.20
2023-03-15T00:25:50.621Z,1.70
2023-03-15T00:28:17.731Z,1.90
2023-03-15T00:30:45.977Z,1.77
2023-03-15T00:33:15.932Z,1.60
2023-03-15T00:35:44.842Z,1.73
2023-03-15T00:38:12.295Z,2.20
2023-03-15T00:40:42.213Z,1.90
2023-03-15T00:43:09.085Z,1.80
2023-03-15T00:45:36.543Z,1.80
2023-03-15T00:48:03.298Z,1.92
2023-03-15T00:50:29.937Z,2.03
2023-03-15T00:52:56.821Z,2.00
2023-03-15T00:55:23.931Z,1.98
2023-03-15T00:57:50.694Z,2.03
2023-03-15T01:00:20.606Z,2.60
2023-03-15T01:02:48.073Z,2.58
2023-03-15T01:05:15.152Z,3.03
2023-03-15T01:07:42.490Z,3.50
2023-03-15T01:10:11.706Z,3.30
2023-03-15T01:12:38.710Z,4.22
2023-03-15T01:15:07.226Z,4.60
2023-03-15T01:17:34.416Z,5.55
2023-03-15T01:20:02.354Z,5.25
2023-03-15T01:22:29.018Z,5.13
2023-03-15T01:24:55.688Z,6.60
2023-03-15T01:27:22.594Z,7.13
2023-03-15T01:29:51.554Z,8.15
2023-03-15T01:32:21.250Z,7.65
2023-03-15T01:34:50.898Z,7.63
2023-03-15T01:37:17.629Z,7.07
2023-03-15T01:39:45.334Z,8.10
2023-03-15T01:42:12.322Z,9.05
2023-03-15T01:45:02.287Z,10.05
2023-03-15T01:47:29.190Z,9.73
2023-03-15T01:50:08.796Z,9.40
2023-03-15T01:52:42.207Z,8.48
2023-03-15T01:55:20.829Z,8.25
2023-03-15T01:58:09.294Z,6.90
2023-03-15T02:00:41.103Z,7.25
2023-03-15T02:03:19.248Z,6.32
2023-03-15T02:05:54.670Z,4.72
2023-03-15T02:08:44.453Z,5.57
2023-03-15T02:11:14.285Z,5.07
2023-03-15T02:13:42.557Z,5.07
2023-03-15T02:16:10.879Z,5.82
2023-03-15T02:18:44.497Z,5.70
2023-03-15T02:21:27.960Z,5.53
2023-03-15T02:24:39.057Z,4.88
2023-03-15T02:27:06.611Z,3.88
2023-03-15T02:29:33.337Z,5.47
2023-03-15T02:32:00.232Z,6.18
2023-03-15T02:34:27.011Z,5.30
2023-03-15T02:36:55.611Z,4.70
2023-03-15T02:39:23.487Z,4.53
2023-03-15T02:41:59.772Z,4.50
2023-03-15T02:44:35.763Z,5.07
2023-03-15T02:47:10.564Z,4.63
2023-03-15T02:49:44.176Z,4.13
2023-03-15T02:52:13.770Z,3.97
2023-03-15T02:54:43.468Z,3.97
2023-03-15T02:57:12.418Z,4.82
2023-03-15T02:59:39.412Z,4.18
2023-03-15T03:02:06.853Z,4.18
2023-03-15T03:04:34.460Z,3.80
2023-03-15T03:07:01.254Z,3.92
2023-03-15T03:09:34.507Z,3.95
2023-03-15T03:12:01.423Z,3.88
2023-03-15T03:14:31.253Z,3.78
2023-03-15T03:16:58.888Z,3.83
2023-03-15T03:19:26.227Z,4.00
2023-03-15T03:21:54.722Z,3.83
2023-03-15T03:24:21.520Z,3.65
2023-03-15T03:26:48.272Z,3.50
2023-03-15T03:29:16.848Z,3.53
2023-03-15T03:31:46.219Z,3.45
2023-03-15T03:34:15.621Z,3.90
2023-03-15T03:36:43.687Z,3.60
2023-03-15T03:39:12.189Z,3.78
2023-03-15T03:41:38.899Z,4.03
2023-03-15T03:44:06.549Z,3.65
2023-03-15T03:46:35.022Z,3.60
2023-03-15T03:49:01.557Z,3.20
2023-03-15T03:51:28.562Z,3.50
2023-03-15T03:53:55.264Z,3.22
2023-03-15T03:56:22.351Z,3.28
2023-03-15T03:58:49.118Z,3.50
2023-03-15T04:01:22.130Z,3.20
2023-03-15T04:03:51.359Z,3.08
2023-03-15T04:06:22.571Z,3.50
2023-03-15T04:08:49.644Z,3.63
2023-03-15T04:11:26.821Z,3.50
2023-03-15T04:14:00.377Z,3.83
2023-03-15T04:16:27.600Z,3.75
2023-03-15T04:18:59.716Z,3.20
2023-03-15T04:21:32.061Z,3.47
2023-03-15T04:24:10.638Z,3.35
2023-03-15T04:26:57.937Z,3.47
2023-03-15T04:29:43.890Z,3.92
2023-03-15T04:32:20.408Z,3.75
2023-03-15T04:35:13.027Z,3.58
2023-03-15T04:37:47.286Z,4.15
2023-03-15T04:40:36.385Z,4.10
2023-03-15T04:43:20.987Z,4.20
2023-03-15T04:46:24.985Z,4.40
2023-03-15T04:49:14.381Z,4.18
2023-03-15T04:51:51.830Z,4.63
2023-03-15T04:54:44.489Z,4.22
2023-03-15T04:57:29.682Z,4.22
2023-03-15T05:00:13.296Z,4.82
2023-03-15T05:03:02.852Z,4.53
2023-03-15T05:05:48.140Z,4.80
2023-03-15T05:08:29.337Z,4.28
2023-03-15T05:11:14.460Z,4.35
2023-03-15T05:13:51.741Z,4.80
2023-03-15T05:16:33.122Z,4.47
2023-03-15T05:19:15.655Z,4.80
2023-03-15T05:21:57.432Z,5.15
2023-03-15T05:24:42.681Z,5.30
2023-03-15T05:27:25.091Z,5.15
2023-03-15T05:30:24.338Z,5.57
2023-03-15T05:33:06.834Z,5.53
2023-03-15T05:35:55.461Z,5.68
2023-03-15T05:38:43.971Z,5.38
2023-03-15T05:41:35.342Z,5.10
2023-03-15T05:44:18.121Z,6.53
2023-03-15T05:47:03.559Z,6.00
2023-03-15T05:49:50.673Z,5.85
2023-03-15T05:52:40.481Z,6.00
2023-03-15T05:55:24.379Z,7.20
2023-03-15T05:58:05.064Z,6.97
2023-03-15T06:01:04.027Z,6.50
2023-03-15T06:03:56.792Z,7.05
2023-03-15T06:06:27.229Z,6.80
2023-03-15T06:08:55.113Z,7.25
2023-03-15T06:11:21.930Z,7.82
2023-03-15T06:13:49.760Z,6.75
2023-03-15T06:16:33.948Z,7.72
2023-03-15T06:19:03.451Z,6.82
2023-03-15T06:21:31.236Z,6.68
2023-03-15T06:23:58.754Z,8.55
2023-03-15T06:26:25.576Z,7.35
2023-03-15T06:28:57.038Z,8.52
2023-03-15T06:31:23.767Z,7.78
2023-03-15T06:33:56.902Z,7.30
2023-03-15T06:36:25.025Z,8.48
2023-03-15T06:38:54.424Z,8.05
2023-03-15T06:41:21.463Z,8.13
2023-03-15T06:43:51.829Z,9.23
2023-03-15T06:46:18.554Z,8.13
2023-03-15T06:48:45.267Z,8.15
2023-03-15T06:51:13.104Z,7.35
2023-03-15T06:53:39.721Z,7.22
2023-03-15T06:56:06.826Z,6.78
2023-03-15T06:58:33.498Z,7.65
2023-03-15T07:01:00.088Z,7.47
2023-03-15T07:03:26.810Z,7.97
2023-03-15T07:05:54.403Z,7.13
2023-03-15T07:08:22.700Z,6.53
2023-03-15T07:10:50.461Z,6.85
2023-03-15T07:13:18.340Z,5.80
2023-03-15T07:15:45.917Z,5.60
2023-03-15T07:18:12.585Z,5.60
2023-03-15T07:20:39.247Z,5.35
2023-03-15T07:23:05.802Z,4.82
2023-03-15T07:25:33.398Z,4.85
2023-03-15T07:28:05.263Z,4.22
2023-03-15T07:30:31.791Z,4.28
2023-03-15T07:32:58.557Z,4.28
2023-03-15T07:35:26.232Z,3.83
2023-03-15T07:37:52.832Z,3.53
2023-03-15T07:40:19.487Z,3.70
2023-03-15T07:42:46.201Z,3.70
2023-03-15T07:45:14.977Z,3.30
2023-03-15T07:47:42.696Z,4.63
2023-03-15T07:50:09.833Z,3.88
2023-03-15T07:52:36.504Z,3.83
2023-03-15T07:55:04.869Z,4.13
2023-03-15T07:57:32.305Z,4.22
2023-03-15T07:59:58.952Z,3.03
2023-03-15T08:02:25.801Z,3.45
2023-03-15T08:04:53.200Z,3.50
2023-03-15T08:07:20.093Z,3.10
2023-03-15T08:09:48.566Z,3.40
2023-03-15T08:12:15.338Z,3.28
2023-03-15T08:14:42.303Z,2.63
2023-03-15T08:17:13.031Z,3.78
2023-03-15T08:19:39.964Z,3.72
2023-03-15T08:22:06.728Z,3.13
2023-03-15T08:24:33.540Z,3.67
2023-03-15T08:27:00.049Z,2.38
2023-03-15T08:29:27.149Z,3.10
2023-03-15T08:31:54.154Z,3.00
2023-03-15T08:34:21.680Z,3.13
2023-03-15T08:36:48.665Z,3.00
2023-03-15T08:39:15.562Z,3.15
2023-03-15T08:41:43.515Z,3.42
2023-03-15T08:44:10.633Z,3.13
2023-03-15T08:46:37.221Z,3.08
2023-03-15T08:49:03.898Z,3.08
2023-03-15T08:51:31.120Z,3.40
2023-03-15T08:53:57.954Z,3.00
2023-03-15T08:56:24.569Z,2.50
2023-03-15T08:58:51.619Z,2.95
2023-03-15T09:01:18.254Z,2.42
2023-03-15T09:03:44.846Z,3.10
2023-03-15T09:06:11.497Z,3.15
2023-03-15T09:08:38.461Z,2.35
2023-03-15T09:11:05.456Z,3.30
2023-03-15T09:13:32.164Z,2.20
2023-03-15T09:15:58.844Z,2.33
2023-03-15T09:18:25.730Z,2.53
2023-03-15T09:20:52.687Z,2.35
2023-03-15T09:23:19.459Z,3.25
2023-03-15T09:25:46.319Z,3.55
2023-03-15T09:28:12.980Z,2.65
2023-03-15T09:30:41.326Z,2.45
2023-03-15T09:33:08.463Z,2.88
2023-03-15T09:35:35.783Z,2.28
2023-03-15T09:38:03.909Z,2.10
2023-03-15T09:40:34.186Z,2.35
2023-03-15T09:43:06.894Z,2.45
2023-03-15T09:46:12.105Z,2.97
2023-03-15T09:48:50.505Z,2.88
2023-03-15T09:51:48.792Z,2.25
2023-03-15T09:54:29.266Z,2.05
2023-03-15T09:57:09.977Z,2.30
2023-03-15T09:59:44.052Z,1.80
2023-03-15T10:02:25.651Z,1.80
2023-03-15T10:04:58.777Z,1.42
2023-03-15T10:07:26.302Z,1.80
2023-03-15T10:09:53.073Z,1.67
2023-03-15T10:12:30.607Z,1.65
2023-03-15T10:15:15.914Z,1.50
2023-03-15T10:17:48.339Z,1.20
2023-03-15T10:20:25.682Z,1.30
2023-03-15T10:23:21.284Z,1.67
2023-03-15T10:25:51.462Z,1.67
2023-03-15T10:28:25.940Z,1.20
2023-03-15T10:30:53.016Z,1.55
2023-03-15T10:33:34.039Z,1.00
2023-03-15T10:36:11.576Z,1.35
2023-03-15T10:38:39.413Z,1.67
2023-03-15T10:41:06.916Z,1.38
2023-03-15T10:43:36.980Z,1.05
2023-03-15T10:46:05.854Z,1.10
2023-03-15T10:48:37.861Z,1.08
2023-03-15T10:51:20.032Z,1.00
2023-03-15T10:53:56.240Z,0.90
2023-03-15T10:56:26.514Z,1.40
2023-03-15T10:59:12.217Z,1.20
2023-03-15T11:01:40.233Z,1.08
2023-03-15T11:04:16.043Z,1.30
2023-03-15T11:06:49.947Z,1.10
2023-03-15T11:09:20.607Z,1.40
2023-03-15T11:11:58.385Z,1.13
2023-03-15T11:14:26.949Z,1.15
2023-03-15T11:16:57.058Z,1.10
2023-03-15T11:19:28.110Z,1.38
2023-03-15T11:21:56.450Z,1.35
2023-03-15T11:24:28.884Z,1.30
2023-03-15T11:27:01.535Z,1.30
2023-03-15T11:29:36.027Z,1.20
2023-03-15T11:32:14.172Z,1.30
2023-03-15T11:34:48.228Z,1.20
2023-03-15T11:37:20.879Z,0.90
2023-03-15T11:40:15.009Z,1.10
2023-03-15T11:43:02.244Z,1.40
2023-03-15T11:45:44.890Z,1.20
2023-03-15T11:48:59.546Z,1.05
2023-03-15T11:51:26.358Z,1.40
2023-03-15T11:54:05.685Z,1.10
2023-03-15T11:56:44.557Z,1.25
2023-03-15T11:59:15.510Z,1.60
2023-03-15T12:01:54.956Z,1.50
2023-03-15T12:04:24.655Z,1.30
2023-03-15T12:06:56.751Z,1.30
2023-03-15T12:09:32.658Z,0.95
2023-03-15T12:12:24.362Z,0.98
2023-03-15T12:15:45.173Z,2.00
2023-03-15T12:18:18.009Z,2.28
2023-03-15T12:20:57.524Z,2.97
2023-03-15T12:23:38.128Z,1.70
2023-03-15T12:26:06.742Z,1.45
2023-03-15T12:28:41.333Z,1.15
2023-03-15T12:31:14.795Z,1.23
2023-03-15T12:36:29.486Z,1.60
2023-03-15T12:39:21.885Z,1.42
2023-03-15T12:41:51.492Z,1.50
2023-03-15T12:44:27.285Z,1.98
2023-03-15T12:46:56.013Z,1.40
2023-03-15T12:49:34.654Z,2.17
2023-03-15T12:52:16.563Z,1.35
2023-03-15T12:54:52.110Z,1.17
2023-03-15T12:57:23.262Z,1.30
2023-03-15T13:00:02.017Z,1.30
2023-03-15T13:02:42.893Z,1.10
2023-03-15T13:05:10.607Z,1.20
2023-03-15T13:07:51.457Z,1.27
2023-03-15T13:10:53.078Z,1.27
2023-03-15T13:13:48.783Z,1.10
2023-03-15T13:16:40.486Z,1.15
2023-03-15T13:19:24.985Z,1.40
2023-03-15T13:22:24.220Z,2.40
2023-03-15T13:25:02.168Z,1.45
2023-03-15T13:27:38.076Z,1.20
2023-03-15T13:30:24.518Z,1.20
2023-03-15T13:33:05.096Z,1.77
2023-03-15T13:35:32.178Z,1.30
2023-03-15T13:38:20.822Z,1.30
2023-03-15T13:40:47.510Z,1.55
2023-03-15T13:43:16.670Z,1.48
2023-03-15T13:45:44.254Z,1.60
2023-03-15T13:48:13.295Z,1.70
2023-03-15T13:50:40.830Z,1.33
2023-03-15T13:53:07.631Z,1.27
2023-03-15T13:55:36.203Z,1.50
2023-03-15T13:58:08.856Z,1.60
2023-03-15T14:00:37.118Z,1.77
2023-03-15T14:03:14.773Z,1.35
2023-03-15T14:05:48.150Z,1.63
2023-03-15T14:08:25.499Z,1.58
2023-03-15T14:11:31.477Z,1.52
2023-03-15T14:14:02.700Z,1.48
2023-03-15T14:17:03.082Z,1.33
2023-03-15T14:19:34.189Z,1.20
2023-03-15T14:22:03.795Z,1.80
2023-03-15T14:24:37.288Z,2.15
2023-03-15T14:27:10.061Z,1.60
2023-03-15T14:29:39.470Z,1.40
2023-03-15T14:32:22.664Z,1.20
2023-03-15T14:34:49.938Z,1.48
2023-03-15T14:37:37.849Z,1.50
2023-03-15T14:40:35.203Z,1.60
2023-03-15T14:43:03.652Z,1.88
2023-03-15T14:45:34.304Z,1.52
2023-03-15T14:48:05.735Z,1.50
2023-03-15T14:50:42.126Z,1.58
2023-03-15T14:53:14.645Z,1.55
2023-03-15T14:55:41.364Z,1.70
2023-03-15T14:58:17.294Z,1.40
2023-03-15T15:00:47.674Z,1.60
2023-03-15T15:03:25.751Z,1.50
2023-03-15T15:05:52.509Z,2.40
2023-03-15T15:08:22.394Z,2.00
2023-03-15T15:10:51.308Z,1.75
2023-03-15T15:13:19.864Z,1.70
2023-03-15T15:15:55.110Z,1.70
2023-03-15T15:18:24.965Z,1.95
2023-03-15T15:20:55.422Z,2.83
2023-03-15T15:23:25.051Z,1.70
2023-03-15T15:25:55.766Z,1.95
2023-03-15T15:28:33.963Z,1.70
2023-03-15T15:31:02.082Z,2.30
2023-03-15T15:33:28.729Z,2.10
2023-03-15T15:35:57.747Z,1.63
2023-03-15T15:38:32.280Z,2.00
2023-03-15T15:40:58.873Z,1.90
2023-03-15T15:43:25.622Z,2.22
2023-03-15T15:45:52.366Z,1.95
2023-03-15T15:48:18.876Z,2.00
2023-03-15T15:50:45.520Z,1.90
2023-03-15T15:53:17.217Z,1.83
2023-03-15T15:55:47.061Z,2.40
2023-03-15T15:58:14.442Z,2.10
2023-03-15T16:00:41.381Z,1.90
2023-03-15T16:03:16.146Z,2.08
2023-03-15T16:05:43.203Z,2.25
2023-03-15T16:08:36.773Z,2.30
2023-03-15T16:11:05.017Z,2.20
2023-03-15T16:13:32.054Z,1.83
2023-03-15T16:15:58.688Z,1.92
2023-03-15T16:18:25.566Z,1.98
2023-03-15T16:20:52.240Z,1.70
2023-03-15T16:23:23.586Z,2.10
2023-03-15T16:25:55.502Z,1.70
2023-03-15T16:28:24.057Z,1.95
2023-03-15T16:30:54.746Z,2.00
2023-03-15T16:33:21.917Z,1.67
2023-03-15T16:35:50.273Z,1.80
2023-03-15T16:38:24.650Z,1.90
2023-03-15T16:40:53.234Z,2.10
2023-03-15T16:43:20.282Z,2.13
2023-03-15T16:45:47.066Z,2.55
2023-03-15T16:48:14.351Z,2.33
2023-03-15T16:50:43.118Z,2.38
2023-03-15T16:53:12.528Z,2.90
2023-03-15T16:55:40.041Z,2.05
2023-03-15T16:58:17.001Z,1.83
2023-03-15T17:00:44.998Z,2.00
2023-03-15T17:03:12.562Z,1.92
2023-03-15T17:05:41.969Z,2.05
2023-03-15T17:08:14.735Z,1.90
2023-03-15T17:10:42.474Z,1.80
2023-03-15T17:13:17.206Z,1.80
2023-03-15T17:15:44.276Z,1.85
2023-03-15T17:18:18.257Z,2.00
2023-03-15T17:20:49.257Z,1.90
2023-03-15T17:23:16.653Z,1.92
2023-03-15T17:25:43.351Z,2.83
2023-03-15T17:28:10.499Z,2.10
2023-03-15T17:30:37.607Z,1.90
2023-03-15T17:33:05.798Z,2.08
2023-03-15T17:35:45.459Z,1.90
2023-03-15T17:38:18.856Z,2.08
2023-03-15T17:40:46.520Z,2.15
2023-03-15T17:43:15.436Z,1.98
2023-03-15T17:45:42.692Z,2.20
2023-03-15T17:48:10.166Z,2.38
2023-03-15T17:50:40.389Z,2.10
2023-03-15T17:53:19.722Z,2.08
2023-03-15T17:55:49.135Z,2.30
2023-03-15T17:58:21.630Z,2.40
2023-03-15T18:00:51.059Z,2.72
2023-03-15T18:03:18.306Z,2.25
2023-03-15T18:05:45.622Z,3.00
2023-03-15T18:08:18.260Z,2.80
2023-03-15T18:10:46.668Z,3.23
2023-03-15T18:13:17.656Z,3.42
2023-03-15T18:15:51.773Z,3.17
2023-03-15T18:18:19.368Z,3.17
2023-03-15T18:20:47.162Z,3.08
2023-03-15T18:23:17.996Z,3.97
2023-03-15T18:25:45.712Z,3.40
2023-03-15T18:28:12.600Z,3.20
2023-03-15T18:30:39.840Z,3.55
2023-03-15T18:33:07.055Z,3.30
2023-03-15T18:35:36.021Z,3.90
2023-03-15T18:38:04.258Z,4.70
2023-03-15T18:40:33.078Z,4.22
2023-03-15T18:43:00.528Z,4.15
2023-03-15T18:45:33.260Z,3.67
2023-03-15T18:48:00.488Z,4.00
2023-03-15T18:50:28.523Z,4.15
2023-03-15T18:52:55.784Z,3.85
2023-03-15T18:55:22.683Z,3.60
2023-03-15T18:57:54.834Z,3.40
2023-03-15T19:00:27.460Z,3.58
2023-03-15T19:02:56.978Z,4.65
2023-03-15T19:05:24.614Z,4.55
2023-03-15T19:07:51.839Z,4.38
2023-03-15T19:10:19.908Z,4.75
2023-03-15T19:12:47.462Z,4.05
2023-03-15T19:15:17.383Z,5.03
2023-03-15T19:17:47.568Z,5.32
2023-03-15T19:20:17.415Z,4.93
2023-03-15T19:22:45.387Z,5.35
2023-03-15T19:25:14.067Z,4.35
2023-03-15T19:27:44.625Z,4.85
2023-03-15T19:30:21.684Z,4.18
2023-03-15T19:32:51.097Z,7.25
2023-03-15T19:35:19.267Z,7.90
2023-03-15T19:37:46.846Z,10.90
2023-03-15T19:40:15.717Z,11.95
2023-03-15T19:42:42.996Z,8.18
2023-03-15T19:45:10.603Z,5.75
2023-03-15T19:47:37.579Z,7.85
2023-03-15T19:50:05.527Z,5.97
2023-03-15T19:52:33.966Z,4.65
2023-03-15T19:55:01.289Z,4.28
2023-03-15T19:57:28.367Z,5.20
2023-03-15T19:59:55.000Z,7.38
2023-03-15T20:02:21.748Z,7.32
2023-03-15T20:04:48.289Z,5.78
2023-03-15T20:07:15.343Z,6.78
2023-03-15T20:09:59.702Z,5.82
2023-03-15T20:12:27.772Z,5.80
2023-03-15T20:14:54.622Z,7.05
2023-03-15T20:17:21.621Z,5.90
2023-03-15T20:19:48.347Z,6.97
2023-03-15T20:22:15.190Z,5.20
2023-03-15T20:24:49.328Z,5.00
2023-03-15T20:30:05.794Z,5.05
2023-03-15T20:35:19.843Z,4.97
2023-03-15T20:37:47.718Z,5.47
2023-03-15T20:40:17.980Z,4.60
2023-03-15T20:42:45.280Z,5.55
2023-03-15T20:45:14.931Z,5.72
2023-03-15T20:47:43.350Z,5.70
2023-03-15T20:50:13.426Z,5.35
2023-03-15T20:52:45.267Z,6.30
2023-03-15T20:55:15.039Z,8.40
2023-03-15T20:57:47.532Z,5.60
2023-03-15T21:00:25.553Z,4.38
2023-03-15T21:02:56.952Z,4.03
2023-03-15T21:05:27.553Z,4.70
2023-03-15T21:08:01.074Z,5.18
2023-03-15T21:12:55.227Z,5.20
2023-03-15T21:15:22.489Z,5.40
2023-03-15T21:17:49.715Z,5.35
2023-03-15T21:20:18.437Z,5.72
2023-03-15T21:22:46.936Z,4.90
2023-03-15T21:25:15.311Z,6.32
2023-03-15T21:27:45.096Z,9.02
2023-03-15T21:30:16.834Z,7.72
2023-03-15T21:32:47.925Z,6.57
2023-03-15T21:35:17.217Z,5.57
2023-03-15T21:37:44.957Z,5.18
2023-03-15T21:40:16.847Z,5.30
2023-03-15T21:42:47.314Z,4.45
2023-03-15T21:45:16.680Z,4.97
2023-03-15T21:47:47.596Z,5.28
2023-03-15T21:50:15.670Z,4.57
2023-03-15T21:52:42.323Z,5.07
2023-03-15T21:55:15.733Z,4.93
2023-03-15T21:57:44.410Z,5.22
2023-03-15T22:00:21.040Z,5.57
2023-03-15T22:02:47.693Z,5.00
2023-03-15T22:05:14.840Z,4.53
2023-03-15T22:07:43.321Z,5.10
2023-03-15T22:10:10.777Z,4.85
2023-03-15T22:12:37.994Z,5.32
2023-03-15T22:15:14.196Z,5.60
2023-03-15T22:17:41.843Z,5.10
2023-03-15T22:20:17.918Z,5.10
2023-03-15T22:22:49.832Z,5.57
2023-03-15T22:25:17.307Z,4.97
2023-03-15T22:27:49.345Z,5.72
2023-03-15T22:30:17.955Z,5.60
2023-03-15T22:32:44.945Z,5.20
2023-03-15T22:35:14.092Z,5.40
2023-03-15T22:37:40.774Z,5.07
2023-03-15T22:40:09.387Z,4.90
2023-03-15T22:42:36.555Z,5.60
2023-03-15T22:45:03.640Z,5.18
2023-03-15T22:47:32.493Z,5.03
2023-03-15T22:49:59.736Z,5.13
2023-03-15T22:52:29.758Z,5.15
2023-03-15T22:54:56.450Z,5.18
2023-03-15T22:57:23.616Z,4.60
2023-03-15T22:59:50.495Z,5.55
2023-03-15T23:02:17.133Z,5.32
2023-03-15T23:04:45.474Z,5.18
2023-03-15T23:07:15.005Z,5.38
2023-03-15T23:09:45.300Z,5.50
2023-03-15T23:12:12.307Z,4.78
2023-03-15T23:14:39.333Z,4.70
2023-03-15T23:17:06.232Z,4.85
2023-03-15T23:19:36.284Z,4.78
2023-03-15T23:22:05.078Z,5.10
2023-03-15T23:24:34.037Z,4.60
2023-03-15T23:27:04.442Z,5.20
2023-03-15T23:29:40.606Z,4.82
2023-03-15T23:32:14.220Z,5.10
2023-03-15T23:34:45.001Z,5.05
2023-03-15T23:37:15.062Z,4.38
2023-03-15T23:39:42.432Z,4.85
2023-03-15T23:42:10.410Z,4.80
2023-03-15T23:44:37.601Z,4.53
2023-03-15T23:47:05.786Z,4.85
2023-03-15T23:49:33.375Z,5.57
2023-03-15T23:52:06.162Z,4.80
2023-03-15T23:54:39.564Z,4.82
2023-03-15T23:57:07.940Z,4.80
2023-03-15T23:59:35.943Z,5.05
